sensor_id;sensor_type;location;lat;lon;timestamp;pressure;altitude;pressure_sealevel;temperature;humidity
46876;BME280;32866;50.160;14.768;2023-06-10T00:01:16;99130.56;;;14.50;100.00
46876;BME280;32866;50.160;14.768;2023-06-10T00:03:42;99144.63;;;14.52;100.00
46876;BME280;32866;50.160;14.768;2023-06-10T00:06:09;99122.94;;;14.21;100.00
46876;BME280;32866;50.160;14.768;2023-06-10T00:08:35;99120.97;;;14.21;100.00
46876;BME280;32866;50.160;14.768;2023-06-10T00:11:03;99129.16;;;14.31;100.00
46876;BME280;32866;50.160;14.768;2023-06-10T00:13:29;99113.69;;;14.33;100.00
46876;BME280;32866;50.160;14.768;2023-06-10T00:15:55;99137.72;;;14.33;100.00
46876;BME280;32866;50.160;14.768;2023-06-10T00:18:21;99143.41;;;14.53;100.00
46876;BME280;32866;50.160;14.768;2023-06-10T00:20:48;99149.22;;;14.55;100.00
46876;BME280;32866;50.160;14.768;2023-06-10T00:23:18;99155.19;;;14.54;100.00
46876;BME280;32866;50.160;14.768;2023-06-10T00:25:44;99157.38;;;14.50;100.00
46876;BME280;32866;50.160;14.768;2023-06-10T00:28:10;99118.88;;;14.31;100.00
46876;BME280;32866;50.160;14.768;2023-06-10T00:30:36;99122.53;;;14.37;100.00
46876;BME280;32866;50.160;14.768;2023-06-10T00:33:02;99130.75;;;14.46;100.00
46876;BME280;32866;50.160;14.768;2023-06-10T00:35:28;99156.03;;;14.69;100.00
46876;BME280;32866;50.160;14.768;2023-06-10T00:37:54;99129.22;;;14.45;100.00
46876;BME280;32866;50.160;14.768;2023-06-10T00:40:20;99154.13;;;14.75;100.00
46876;BME280;32866;50.160;14.768;2023-06-10T00:42:46;99150.78;;;14.71;100.00
46876;BME280;32866;50.160;14.768;2023-06-10T00:45:11;99156.31;;;14.71;100.00
46876;BME280;32866;50.160;14.768;2023-06-10T00:47:38;99149.16;;;14.64;100.00
46876;BME280;32866;50.160;14.768;2023-06-10T00:50:05;99161.47;;;14.78;100.00
46876;BME280;32866;50.160;14.768;2023-06-10T00:52:31;99154.97;;;14.67;100.00
46876;BME280;32866;50.160;14.768;2023-06-10T00:54:57;99162.00;;;14.68;100.00
46876;BME280;32866;50.160;14.768;2023-06-10T00:57:25;99162.53;;;14.57;100.00
46876;BME280;32866;50.160;14.768;2023-06-10T00:59:51;99160.09;;;14.59;100.00
46876;BME280;32866;50.160;14.768;2023-06-10T01:02:17;99160.13;;;14.74;100.00
46876;BME280;32866;50.160;14.768;2023-06-10T01:04:43;99161.16;;;14.61;100.00
46876;BME280;32866;50.160;14.768;2023-06-10T01:07:25;99163.03;;;14.46;100.00
46876;BME280;32866;50.160;14.768;2023-06-10T01:10:09;99161.13;;;14.37;100.00
46876;BME280;32866;50.160;14.768;2023-06-10T01:12:43;99165.44;;;14.29;100.00
46876;BME280;32866;50.160;14.768;2023-06-10T01:15:17;99169.78;;;14.21;100.00
46876;BME280;32866;50.160;14.768;2023-06-10T01:18:00;99175.19;;;14.15;100.00
46876;BME280;32866;50.160;14.768;2023-06-10T01:20:28;99174.13;;;14.13;100.00
46876;BME280;32866;50.160;14.768;2023-06-10T01:22:55;99177.97;;;14.06;100.00
46876;BME280;32866;50.160;14.768;2023-06-10T01:25:24;99171.44;;;13.94;100.00
46876;BME280;32866;50.160;14.768;2023-06-10T01:28:06;99173.09;;;14.01;100.00
46876;BME280;32866;50.160;14.768;2023-06-10T01:30:47;99183.03;;;14.07;100.00
46876;BME280;32866;50.160;14.768;2023-06-10T01:33:17;99175.34;;;14.12;100.00
46876;BME280;32866;50.160;14.768;2023-06-10T01:35:44;99152.81;;;13.89;100.00
46876;BME280;32866;50.160;14.768;2023-06-10T01:38:14;99176.09;;;14.21;100.00
46876;BME280;32866;50.160;14.768;2023-06-10T01:40:42;99178.22;;;14.17;100.00
46876;BME280;32866;50.160;14.768;2023-06-10T01:43:08;99174.91;;;14.13;100.00
46876;BME280;32866;50.160;14.768;2023-06-10T01:45:34;99159.97;;;13.96;100.00
46876;BME280;32866;50.160;14.768;2023-06-10T01:48:00;99187.38;;;14.23;100.00
46876;BME280;32866;50.160;14.768;2023-06-10T01:50:26;99159.78;;;13.99;100.00
46876;BME280;32866;50.160;14.768;2023-06-10T01:52:51;99196.41;;;14.24;100.00
46876;BME280;32866;50.160;14.768;2023-06-10T01:55:17;99196.00;;;14.16;100.00
46876;BME280;32866;50.160;14.768;2023-06-10T01:57:43;99202.22;;;14.26;100.00
46876;BME280;32866;50.160;14.768;2023-06-10T02:00:10;99174.81;;;13.98;100.00
46876;BME280;32866;50.160;14.768;2023-06-10T02:02:36;99185.22;;;13.94;100.00
46876;BME280;32866;50.160;14.768;2023-06-10T02:05:02;99204.19;;;14.01;100.00
46876;BME280;32866;50.160;14.768;2023-06-10T02:07:28;99179.75;;;13.85;100.00
46876;BME280;32866;50.160;14.768;2023-06-10T02:09:54;99216.06;;;14.17;100.00
46876;BME280;32866;50.160;14.768;2023-06-10T02:12:20;99181.16;;;13.80;100.00
46876;BME280;32866;50.160;14.768;2023-06-10T02:14:46;99206.09;;;13.86;100.00
46876;BME280;32866;50.160;14.768;2023-06-10T02:17:12;99177.41;;;13.59;100.00
46876;BME280;32866;50.160;14.768;2023-06-10T02:19:38;99211.59;;;13.86;100.00
46876;BME280;32866;50.160;14.768;2023-06-10T02:22:11;99206.09;;;13.77;100.00
46876;BME280;32866;50.160;14.768;2023-06-10T02:24:37;99190.84;;;13.57;100.00
46876;BME280;32866;50.160;14.768;2023-06-10T02:27:05;99168.66;;;13.61;100.00
46876;BME280;32866;50.160;14.768;2023-06-10T02:29:34;99208.22;;;13.91;100.00
46876;BME280;32866;50.160;14.768;2023-06-10T02:32:02;99198.47;;;13.71;100.00
46876;BME280;32866;50.160;14.768;2023-06-10T02:34:28;99174.78;;;13.65;100.00
46876;BME280;32866;50.160;14.768;2023-06-10T02:36:54;99205.81;;;13.65;100.00
46876;BME280;32866;50.160;14.768;2023-06-10T02:39:21;99193.63;;;13.57;100.00
46876;BME280;32866;50.160;14.768;2023-06-10T02:41:47;99195.81;;;13.34;100.00
46876;BME280;32866;50.160;14.768;2023-06-10T02:44:13;99206.81;;;13.34;100.00
46876;BME280;32866;50.160;14.768;2023-06-10T02:46:39;99175.94;;;13.40;100.00
46876;BME280;32866;50.160;14.768;2023-06-10T02:49:05;99203.13;;;13.28;100.00
46876;BME280;32866;50.160;14.768;2023-06-10T02:51:31;99211.25;;;13.41;100.00
46876;BME280;32866;50.160;14.768;2023-06-10T02:53:57;99199.00;;;13.24;100.00
46876;BME280;32866;50.160;14.768;2023-06-10T02:56:23;99217.34;;;13.45;100.00
46876;BME280;32866;50.160;14.768;2023-06-10T02:58:49;99199.78;;;13.33;100.00
46876;BME280;32866;50.160;14.768;2023-06-10T03:01:16;99194.44;;;13.39;100.00
46876;BME280;32866;50.160;14.768;2023-06-10T03:03:42;99177.00;;;13.33;100.00
46876;BME280;32866;50.160;14.768;2023-06-10T03:06:11;99213.50;;;13.61;100.00
46876;BME280;32866;50.160;14.768;2023-06-10T03:08:39;99209.69;;;13.49;100.00
46876;BME280;32866;50.160;14.768;2023-06-10T03:11:05;99220.88;;;13.46;100.00
46876;BME280;32866;50.160;14.768;2023-06-10T03:13:32;99209.53;;;13.44;100.00
46876;BME280;32866;50.160;14.768;2023-06-10T03:15:58;99221.19;;;13.39;100.00
46876;BME280;32866;50.160;14.768;2023-06-10T03:18:26;99221.19;;;13.39;100.00
46876;BME280;32866;50.160;14.768;2023-06-10T03:20:52;99220.59;;;13.34;100.00
46876;BME280;32866;50.160;14.768;2023-06-10T03:23:18;99191.19;;;13.22;100.00
46876;BME280;32866;50.160;14.768;2023-06-10T03:25:44;99233.09;;;13.45;100.00
46876;BME280;32866;50.160;14.768;2023-06-10T03:28:11;99225.47;;;13.40;100.00
46876;BME280;32866;50.160;14.768;2023-06-10T03:30:37;99231.06;;;13.64;100.00
46876;BME280;32866;50.160;14.768;2023-06-10T03:33:03;99235.81;;;13.54;100.00
46876;BME280;32866;50.160;14.768;2023-06-10T03:35:29;99245.63;;;13.64;100.00
46876;BME280;32866;50.160;14.768;2023-06-10T03:37:55;99245.28;;;13.62;100.00
46876;BME280;32866;50.160;14.768;2023-06-10T03:40:21;99238.91;;;13.56;100.00
46876;BME280;32866;50.160;14.768;2023-06-10T03:42:47;99216.72;;;13.60;100.00
46876;BME280;32866;50.160;14.768;2023-06-10T03:45:13;99222.50;;;13.62;100.00
46876;BME280;32866;50.160;14.768;2023-06-10T03:47:39;99240.09;;;13.64;100.00
46876;BME280;32866;50.160;14.768;2023-06-10T03:50:07;99228.19;;;13.58;100.00
46876;BME280;32866;50.160;14.768;2023-06-10T03:52:34;99238.53;;;13.82;100.00
46876;BME280;32866;50.160;14.768;2023-06-10T03:55:00;99202.19;;;13.59;100.00
46876;BME280;32866;50.160;14.768;2023-06-10T03:57:26;99201.56;;;13.64;100.00
46876;BME280;32866;50.160;14.768;2023-06-10T03:59:53;99210.53;;;13.74;100.00
46876;BME280;32866;50.160;14.768;2023-06-10T04:02:19;99211.44;;;13.89;100.00
46876;BME280;32866;50.160;14.768;2023-06-10T04:04:45;99204.81;;;13.96;100.00
46876;BME280;32866;50.160;14.768;2023-06-10T04:07:11;99241.09;;;14.28;100.00
46876;BME280;32866;50.160;14.768;2023-06-10T04:09:38;99206.06;;;14.19;100.00
46876;BME280;32866;50.160;14.768;2023-06-10T04:12:04;99247.72;;;14.55;100.00
46876;BME280;32866;50.160;14.768;2023-06-10T04:14:34;99252.06;;;14.71;100.00
46876;BME280;32866;50.160;14.768;2023-06-10T04:17:02;99240.63;;;14.87;100.00
46876;BME280;32866;50.160;14.768;2023-06-10T04:19:28;99250.16;;;15.01;100.00
46876;BME280;32866;50.160;14.768;2023-06-10T04:21:56;99230.38;;;15.02;100.00
46876;BME280;32866;50.160;14.768;2023-06-10T04:24:23;99219.38;;;15.17;100.00
46876;BME280;32866;50.160;14.768;2023-06-10T04:26:49;99223.50;;;15.37;100.00
46876;BME280;32866;50.160;14.768;2023-06-10T04:29:15;99218.06;;;15.72;100.00
46876;BME280;32866;50.160;14.768;2023-06-10T04:31:41;99252.91;;;16.14;100.00
46876;BME280;32866;50.160;14.768;2023-06-10T04:34:07;99229.69;;;15.91;100.00
46876;BME280;32866;50.160;14.768;2023-06-10T04:36:33;99257.69;;;16.14;100.00
46876;BME280;32866;50.160;14.768;2023-06-10T04:38:59;99255.38;;;16.27;100.00
46876;BME280;32866;50.160;14.768;2023-06-10T04:41:25;99226.81;;;16.16;100.00
46876;BME280;32866;50.160;14.768;2023-06-10T04:43:52;99237.81;;;16.30;100.00
46876;BME280;32866;50.160;14.768;2023-06-10T04:46:19;99254.31;;;16.60;100.00
46876;BME280;32866;50.160;14.768;2023-06-10T04:48:45;99261.66;;;16.63;100.00
46876;BME280;32866;50.160;14.768;2023-06-10T04:51:12;99238.22;;;16.23;100.00
46876;BME280;32866;50.160;14.768;2023-06-10T04:53:39;99262.47;;;16.49;100.00
46876;BME280;32866;50.160;14.768;2023-06-10T04:56:05;99265.94;;;16.64;100.00
46876;BME280;32866;50.160;14.768;2023-06-10T04:58:31;99225.84;;;16.54;100.00
46876;BME280;32866;50.160;14.768;2023-06-10T05:00:57;99268.31;;;16.92;100.00
46876;BME280;32866;50.160;14.768;2023-06-10T05:03:23;99235.09;;;16.72;100.00
46876;BME280;32866;50.160;14.768;2023-06-10T05:05:48;99270.53;;;17.09;100.00
46876;BME280;32866;50.160;14.768;2023-06-10T05:08:14;99249.84;;;16.83;100.00
46876;BME280;32866;50.160;14.768;2023-06-10T05:10:40;99282.56;;;17.05;100.00
46876;BME280;32866;50.160;14.768;2023-06-10T05:13:06;99256.44;;;17.06;100.00
46876;BME280;32866;50.160;14.768;2023-06-10T05:15:32;99290.28;;;17.42;100.00
46876;BME280;32866;50.160;14.768;2023-06-10T05:17:58;99280.91;;;17.60;100.00
46876;BME280;32866;50.160;14.768;2023-06-10T05:20:24;99282.81;;;17.75;100.00
46876;BME280;32866;50.160;14.768;2023-06-10T05:22:50;99246.00;;;17.74;100.00
46876;BME280;32866;50.160;14.768;2023-06-10T05:25:16;99285.94;;;18.14;100.00
46876;BME280;32866;50.160;14.768;2023-06-10T05:27:42;99265.81;;;17.88;100.00
46876;BME280;32866;50.160;14.768;2023-06-10T05:30:10;99276.94;;;17.67;100.00
46876;BME280;32866;50.160;14.768;2023-06-10T05:32:36;99278.97;;;17.67;100.00
46876;BME280;32866;50.160;14.768;2023-06-10T05:35:02;99262.72;;;17.54;100.00
46876;BME280;32866;50.160;14.768;2023-06-10T05:37:29;99283.81;;;17.77;100.00
46876;BME280;32866;50.160;14.768;2023-06-10T05:39:55;99287.41;;;17.84;100.00
46876;BME280;32866;50.160;14.768;2023-06-10T05:42:21;99263.75;;;17.56;100.00
46876;BME280;32866;50.160;14.768;2023-06-10T05:44:47;99293.00;;;18.15;100.00
46876;BME280;32866;50.160;14.768;2023-06-10T05:47:13;99291.81;;;18.28;100.00
46876;BME280;32866;50.160;14.768;2023-06-10T05:49:39;99292.16;;;18.41;100.00
46876;BME280;32866;50.160;14.768;2023-06-10T05:52:05;99274.47;;;18.01;100.00
46876;BME280;32866;50.160;14.768;2023-06-10T05:54:31;99296.34;;;18.68;100.00
46876;BME280;32866;50.160;14.768;2023-06-10T05:56:57;99288.53;;;19.16;100.00
46876;BME280;32866;50.160;14.768;2023-06-10T05:59:22;99295.97;;;19.58;100.00
46876;BME280;32866;50.160;14.768;2023-06-10T06:01:49;99300.03;;;19.69;100.00
46876;BME280;32866;50.160;14.768;2023-06-10T06:04:16;99287.69;;;19.98;100.00
46876;BME280;32866;50.160;14.768;2023-06-10T06:06:42;99272.03;;;19.95;100.00
46876;BME280;32866;50.160;14.768;2023-06-10T06:09:08;99294.78;;;20.22;100.00
46876;BME280;32866;50.160;14.768;2023-06-10T06:11:34;99296.03;;;20.20;100.00
46876;BME280;32866;50.160;14.768;2023-06-10T06:14:01;99276.06;;;19.82;100.00
46876;BME280;32866;50.160;14.768;2023-06-10T06:16:27;99281.28;;;19.41;100.00
46876;BME280;32866;50.160;14.768;2023-06-10T06:18:53;99304.28;;;19.47;100.00
46876;BME280;32866;50.160;14.768;2023-06-10T06:21:19;99309.81;;;19.47;100.00
46876;BME280;32866;50.160;14.768;2023-06-10T06:23:45;99280.28;;;19.44;100.00
46876;BME280;32866;50.160;14.768;2023-06-10T06:26:11;99288.34;;;19.42;100.00
46876;BME280;32866;50.160;14.768;2023-06-10T06:28:37;99308.59;;;19.59;100.00
46876;BME280;32866;50.160;14.768;2023-06-10T06:31:03;99303.59;;;19.97;100.00
46876;BME280;32866;50.160;14.768;2023-06-10T06:33:29;99307.69;;;20.08;100.00
46876;BME280;32866;50.160;14.768;2023-06-10T06:35:55;99286.84;;;20.71;100.00
46876;BME280;32866;50.160;14.768;2023-06-10T06:38:21;99285.50;;;21.00;100.00
46876;BME280;32866;50.160;14.768;2023-06-10T06:40:47;99313.84;;;20.93;100.00
46876;BME280;32866;50.160;14.768;2023-06-10T06:43:13;99318.75;;;20.47;100.00
46876;BME280;32866;50.160;14.768;2023-06-10T06:45:39;99298.53;;;20.24;100.00
46876;BME280;32866;50.160;14.768;2023-06-10T06:48:05;99326.84;;;20.51;100.00
46876;BME280;32866;50.160;14.768;2023-06-10T06:50:35;99335.72;;;20.66;100.00
46876;BME280;32866;50.160;14.768;2023-06-10T06:53:02;99292.22;;;20.46;100.00
46876;BME280;32866;50.160;14.768;2023-06-10T06:55:28;99346.06;;;20.49;100.00
46876;BME280;32866;50.160;14.768;2023-06-10T06:57:54;99317.78;;;20.16;100.00
46876;BME280;32866;50.160;14.768;2023-06-10T07:00:21;99340.03;;;20.22;100.00
46876;BME280;32866;50.160;14.768;2023-06-10T07:02:48;99331.91;;;20.47;100.00
46876;BME280;32866;50.160;14.768;2023-06-10T07:05:14;99341.28;;;20.15;100.00
46876;BME280;32866;50.160;14.768;2023-06-10T07:07:40;99338.25;;;20.19;100.00
46876;BME280;32866;50.160;14.768;2023-06-10T07:10:06;99312.88;;;19.60;100.00
46876;BME280;32866;50.160;14.768;2023-06-10T07:12:32;99322.00;;;19.61;100.00
46876;BME280;32866;50.160;14.768;2023-06-10T07:14:58;99317.00;;;19.76;100.00
46876;BME280;32866;50.160;14.768;2023-06-10T07:17:24;99346.34;;;20.00;100.00
46876;BME280;32866;50.160;14.768;2023-06-10T07:19:51;99297.03;;;20.00;100.00
46876;BME280;32866;50.160;14.768;2023-06-10T07:22:17;99339.00;;;20.14;100.00
46876;BME280;32866;50.160;14.768;2023-06-10T07:24:43;99341.28;;;20.38;100.00
46876;BME280;32866;50.160;14.768;2023-06-10T07:27:09;99353.16;;;20.44;100.00
46876;BME280;32866;50.160;14.768;2023-06-10T07:29:35;99334.19;;;20.48;100.00
46876;BME280;32866;50.160;14.768;2023-06-10T07:32:03;99324.34;;;21.81;100.00
46876;BME280;32866;50.160;14.768;2023-06-10T07:34:29;99348.34;;;22.26;100.00
46876;BME280;32866;50.160;14.768;2023-06-10T07:36:55;99333.00;;;22.14;100.00
46876;BME280;32866;50.160;14.768;2023-06-10T07:39:21;99355.06;;;22.12;100.00
46876;BME280;32866;50.160;14.768;2023-06-10T07:41:47;99326.19;;;21.15;100.00
46876;BME280;32866;50.160;14.768;2023-06-10T07:44:14;99331.47;;;21.24;100.00
46876;BME280;32866;50.160;14.768;2023-06-10T07:46:40;99353.88;;;20.96;100.00
46876;BME280;32866;50.160;14.768;2023-06-10T07:49:06;99336.97;;;20.71;100.00
46876;BME280;32866;50.160;14.768;2023-06-10T07:51:32;99330.13;;;20.49;100.00
46876;BME280;32866;50.160;14.768;2023-06-10T07:53:58;99339.53;;;20.35;100.00
46876;BME280;32866;50.160;14.768;2023-06-10T07:56:24;99368.34;;;20.43;100.00
46876;BME280;32866;50.160;14.768;2023-06-10T07:58:52;99362.53;;;20.58;100.00
46876;BME280;32866;50.160;14.768;2023-06-10T08:01:18;99369.88;;;20.33;100.00
46876;BME280;32866;50.160;14.768;2023-06-10T08:03:44;99371.38;;;20.17;100.00
46876;BME280;32866;50.160;14.768;2023-06-10T08:06:10;99358.97;;;19.90;100.00
46876;BME280;32866;50.160;14.768;2023-06-10T08:08:37;99338.22;;;19.85;100.00
46876;BME280;32866;50.160;14.768;2023-06-10T08:11:08;99379.97;;;19.96;100.00
46876;BME280;32866;50.160;14.768;2023-06-10T08:13:34;99378.69;;;20.09;100.00
46876;BME280;32866;50.160;14.768;2023-06-10T08:16:00;99377.44;;;20.10;100.00
46876;BME280;32866;50.160;14.768;2023-06-10T08:18:26;99358.69;;;19.82;100.00
46876;BME280;32866;50.160;14.768;2023-06-10T08:20:52;99366.47;;;19.67;100.00
46876;BME280;32866;50.160;14.768;2023-06-10T08:23:18;99359.47;;;19.82;100.00
46876;BME280;32866;50.160;14.768;2023-06-10T08:25:45;99376.69;;;19.98;100.00
46876;BME280;32866;50.160;14.768;2023-06-10T08:28:11;99344.72;;;19.65;100.00
46876;BME280;32866;50.160;14.768;2023-06-10T08:30:37;99346.47;;;19.57;100.00
46876;BME280;32866;50.160;14.768;2023-06-10T08:33:03;99358.34;;;19.52;100.00
46876;BME280;32866;50.160;14.768;2023-06-10T08:35:29;99357.09;;;19.53;100.00
46876;BME280;32866;50.160;14.768;2023-06-10T08:37:55;99354.06;;;19.56;100.00
46876;BME280;32866;50.160;14.768;2023-06-10T08:40:21;99360.47;;;19.85;100.00
46876;BME280;32866;50.160;14.768;2023-06-10T08:45:29;99383.75;;;19.99;100.00
46876;BME280;32866;50.160;14.768;2023-06-10T08:47:57;99384.25;;;19.97;100.00
46876;BME280;32866;50.160;14.768;2023-06-10T08:50:23;99346.81;;;19.76;100.00
46876;BME280;32866;50.160;14.768;2023-06-10T08:52:54;99375.16;;;19.91;100.00
46876;BME280;32866;50.160;14.768;2023-06-10T08:55:32;99379.72;;;19.94;100.00
46876;BME280;32866;50.160;14.768;2023-06-10T08:58:00;99369.34;;;19.95;100.00
46876;BME280;32866;50.160;14.768;2023-06-10T09:00:27;99377.41;;;19.87;100.00
46876;BME280;32866;50.160;14.768;2023-06-10T09:02:55;99354.13;;;19.79;100.00
46876;BME280;32866;50.160;14.768;2023-06-10T09:05:22;99376.91;;;19.83;100.00
46876;BME280;32866;50.160;14.768;2023-06-10T09:07:48;99374.00;;;19.55;100.00
46876;BME280;32866;50.160;14.768;2023-06-10T09:10:14;99363.69;;;19.61;100.00
46876;BME280;32866;50.160;14.768;2023-06-10T09:12:40;99353.81;;;19.54;100.00
46876;BME280;32866;50.160;14.768;2023-06-10T09:15:07;99376.13;;;19.77;100.00
46876;BME280;32866;50.160;14.768;2023-06-10T09:17:33;99382.22;;;19.92;100.00
46876;BME280;32866;50.160;14.768;2023-06-10T09:20:02;99375.16;;;19.91;100.00
46876;BME280;32866;50.160;14.768;2023-06-10T09:22:28;99352.66;;;20.00;100.00
46876;BME280;32866;50.160;14.768;2023-06-10T09:25:06;99382.25;;;20.32;100.00
46876;BME280;32866;50.160;14.768;2023-06-10T09:27:51;99389.59;;;20.74;100.00
46876;BME280;32866;50.160;14.768;2023-06-10T09:30:34;99378.91;;;21.07;100.00
46876;BME280;32866;50.160;14.768;2023-06-10T09:33:02;99386.41;;;21.29;100.00
46876;BME280;32866;50.160;14.768;2023-06-10T09:35:30;99386.84;;;21.56;100.00
46876;BME280;32866;50.160;14.768;2023-06-10T09:37:58;99394.97;;;21.48;100.00
46876;BME280;32866;50.160;14.768;2023-06-10T09:40:24;99389.06;;;21.68;100.00
46876;BME280;32866;50.160;14.768;2023-06-10T09:42:55;99394.00;;;22.29;100.00
46876;BME280;32866;50.160;14.768;2023-06-10T09:45:22;99387.47;;;22.81;100.00
46876;BME280;32866;50.160;14.768;2023-06-10T09:47:52;99397.06;;;23.35;100.00
46876;BME280;32866;50.160;14.768;2023-06-10T09:50:19;99397.31;;;23.94;100.00
46876;BME280;32866;50.160;14.768;2023-06-10T09:52:46;99392.19;;;23.98;100.00
46876;BME280;32866;50.160;14.768;2023-06-10T09:55:12;99372.16;;;24.26;100.00
46876;BME280;32866;50.160;14.768;2023-06-10T09:57:38;99373.25;;;24.69;100.00
46876;BME280;32866;50.160;14.768;2023-06-10T10:00:11;99390.59;;;24.68;100.00
46876;BME280;32866;50.160;14.768;2023-06-10T10:02:51;99392.34;;;24.97;100.00
46876;BME280;32866;50.160;14.768;2023-06-10T10:05:21;99393.06;;;24.85;100.00
46876;BME280;32866;50.160;14.768;2023-06-10T10:07:48;99383.81;;;26.54;100.00
46876;BME280;32866;50.160;14.768;2023-06-10T10:10:15;99374.72;;;27.19;100.00
46876;BME280;32866;50.160;14.768;2023-06-10T10:12:41;99376.59;;;28.59;100.00
46876;BME280;32866;50.160;14.768;2023-06-10T10:15:09;99364.44;;;29.12;100.00
46876;BME280;32866;50.160;14.768;2023-06-10T10:18:09;99372.78;;;28.87;94.40
46876;BME280;32866;50.160;14.768;2023-06-10T10:20:45;99363.75;;;29.93;82.33
46876;BME280;32866;50.160;14.768;2023-06-10T10:23:13;99353.25;;;29.86;79.71
46876;BME280;32866;50.160;14.768;2023-06-10T10:25:42;99356.16;;;30.03;77.82
46876;BME280;32866;50.160;14.768;2023-06-10T10:30:49;99353.47;;;29.39;79.36
46876;BME280;32866;50.160;14.768;2023-06-10T10:33:20;99344.06;;;28.65;83.30
46876;BME280;32866;50.160;14.768;2023-06-10T10:35:49;99355.41;;;27.52;86.45
46876;BME280;32866;50.160;14.768;2023-06-10T10:38:15;99329.28;;;25.65;92.05
46876;BME280;32866;50.160;14.768;2023-06-10T10:40:43;99354.03;;;25.40;97.64
46876;BME280;32866;50.160;14.768;2023-06-10T10:43:10;99326.84;;;24.41;100.00
46876;BME280;32866;50.160;14.768;2023-06-10T10:45:37;99353.03;;;23.98;100.00
46876;BME280;32866;50.160;14.768;2023-06-10T10:48:09;99362.00;;;23.72;100.00
46876;BME280;32866;50.160;14.768;2023-06-10T10:50:38;99350.97;;;23.23;100.00
46876;BME280;32866;50.160;14.768;2023-06-10T10:53:05;99343.78;;;23.08;100.00
46876;BME280;32866;50.160;14.768;2023-06-10T10:55:32;99315.31;;;22.85;100.00
46876;BME280;32866;50.160;14.768;2023-06-10T10:58:06;99338.28;;;23.41;100.00
46876;BME280;32866;50.160;14.768;2023-06-10T11:00:45;99325.19;;;23.11;100.00
46876;BME280;32866;50.160;14.768;2023-06-10T11:03:16;99348.03;;;23.34;100.00
46876;BME280;32866;50.160;14.768;2023-06-10T11:05:47;99341.06;;;23.79;100.00
46876;BME280;32866;50.160;14.768;2023-06-10T11:10:59;99340.19;;;25.55;100.00
46876;BME280;32866;50.160;14.768;2023-06-10T11:13:26;99335.47;;;27.06;100.00
46876;BME280;32866;50.160;14.768;2023-06-10T11:15:57;99328.06;;;27.75;94.82
46876;BME280;32866;50.160;14.768;2023-06-10T11:18:26;99324.75;;;28.16;93.46
46876;BME280;32866;50.160;14.768;2023-06-10T11:21:01;99320.22;;;28.05;87.69
46876;BME280;32866;50.160;14.768;2023-06-10T11:29:04;99321.19;;;27.32;93.96
46876;BME280;32866;50.160;14.768;2023-06-10T11:31:41;99304.03;;;27.74;89.19
46876;BME280;32866;50.160;14.768;2023-06-10T11:34:08;99310.03;;;26.75;93.76
46876;BME280;32866;50.160;14.768;2023-06-10T11:36:38;99318.97;;;25.81;93.79
46876;BME280;32866;50.160;14.768;2023-06-10T11:39:09;99328.31;;;24.88;100.00
46876;BME280;32866;50.160;14.768;2023-06-10T11:41:36;99279.69;;;25.81;99.43
46876;BME280;32866;50.160;14.768;2023-06-10T11:44:07;99310.31;;;26.63;90.80
46876;BME280;32866;50.160;14.768;2023-06-10T11:46:34;99308.09;;;26.98;96.46
46876;BME280;32866;50.160;14.768;2023-06-10T11:49:01;99298.50;;;27.30;88.62
46876;BME280;32866;50.160;14.768;2023-06-10T11:51:31;99295.66;;;28.13;88.59
46876;BME280;32866;50.160;14.768;2023-06-10T11:53:57;99277.41;;;28.45;84.15
46876;BME280;32866;50.160;14.768;2023-06-10T11:56:27;99299.09;;;28.91;83.67
46876;BME280;32866;50.160;14.768;2023-06-10T11:59:03;99293.22;;;29.52;83.44
46876;BME280;32866;50.160;14.768;2023-06-10T12:01:35;99287.31;;;29.66;77.57
46876;BME280;32866;50.160;14.768;2023-06-10T12:04:07;99287.22;;;29.48;73.96
46876;BME280;32866;50.160;14.768;2023-06-10T12:11:45;99280.34;;;26.95;86.00
46876;BME280;32866;50.160;14.768;2023-06-10T12:14:11;99268.22;;;27.83;86.41
46876;BME280;32866;50.160;14.768;2023-06-10T12:16:37;99284.84;;;28.89;78.39
46876;BME280;32866;50.160;14.768;2023-06-10T12:19:04;99264.06;;;29.17;72.54
46876;BME280;32866;50.160;14.768;2023-06-10T12:21:33;99272.78;;;28.96;74.72
46876;BME280;32866;50.160;14.768;2023-06-10T12:24:07;99282.72;;;28.02;80.27
46876;BME280;32866;50.160;14.768;2023-06-10T12:26:38;99273.25;;;27.09;78.11
46876;BME280;32866;50.160;14.768;2023-06-10T12:32:01;99278.38;;;27.26;74.86
46876;BME280;32866;50.160;14.768;2023-06-10T12:36:55;99248.44;;;27.36;72.83
46876;BME280;32866;50.160;14.768;2023-06-10T12:39:21;99258.97;;;27.51;73.09
46876;BME280;32866;50.160;14.768;2023-06-10T12:41:48;99243.13;;;28.87;71.71
46876;BME280;32866;50.160;14.768;2023-06-10T12:44:15;99233.78;;;28.69;64.97
46876;BME280;32866;50.160;14.768;2023-06-10T12:46:41;99230.19;;;29.25;65.90
46876;BME280;32866;50.160;14.768;2023-06-10T12:49:07;99242.75;;;29.31;62.91
46876;BME280;32866;50.160;14.768;2023-06-10T12:51:33;99250.03;;;29.34;58.67
46876;BME280;32866;50.160;14.768;2023-06-10T12:54:02;99233.50;;;30.31;56.61
46876;BME280;32866;50.160;14.768;2023-06-10T12:56:28;99246.06;;;30.38;60.75
46876;BME280;32866;50.160;14.768;2023-06-10T12:58:54;99259.97;;;30.44;65.85
46876;BME280;32866;50.160;14.768;2023-06-10T13:01:20;99254.31;;;29.02;66.49
46876;BME280;32866;50.160;14.768;2023-06-10T13:03:47;99249.88;;;27.97;68.96
46876;BME280;32866;50.160;14.768;2023-06-10T13:06:13;99231.38;;;26.82;74.18